createdAt,value
2019-05-18T00:00:17.482Z,11.80
2019-05-18T00:00:50.125Z,11.80
2019-05-18T00:01:22.771Z,11.80
2019-05-18T00:01:55.396Z,11.80
2019-05-18T00:02:28.030Z,11.70
2019-05-18T00:03:00.669Z,11.70
2019-05-18T00:03:33.777Z,11.80
2019-05-18T00:04:06.433Z,11.80
2019-05-18T00:04:39.398Z,11.80
2019-05-18T00:05:12.391Z,11.80
2019-05-18T00:05:45.018Z,11.80
2019-05-18T00:06:17.813Z,11.80
2019-05-18T00:06:50.451Z,11.70
2019-05-18T00:07:23.100Z,11.70
2019-05-18T00:07:55.844Z,11.70
2019-05-18T00:08:29.258Z,11.70
2019-05-18T00:09:02.260Z,11.70
2019-05-18T00:09:35.643Z,11.70
2019-05-18T00:10:09.471Z,11.70
2019-05-18T00:10:42.240Z,11.70
2019-05-18T00:11:14.875Z,11.70
2019-05-18T00:11:47.498Z,11.70
2019-05-18T00:12:20.529Z,11.70
2019-05-18T00:12:53.180Z,11.70
2019-05-18T00:13:26.347Z,11.70
2019-05-18T00:13:59.033Z,11.70
2019-05-18T00:14:31.687Z,11.70
2019-05-18T00:15:04.695Z,11.70
2019-05-18T00:15:37.671Z,11.70
2019-05-18T00:16:10.810Z,11.70
2019-05-18T00:16:43.779Z,11.70
2019-05-18T00:17:25.077Z,11.70
2019-05-18T00:17:50.846Z,11.70
2019-05-18T00:18:23.487Z,11.70
2019-05-18T00:18:56.131Z,11.60
2019-05-18T00:19:28.749Z,11.70
2019-05-18T00:20:01.398Z,11.70
2019-05-18T00:20:35.115Z,11.70
2019-05-18T00:21:07.731Z,11.70
2019-05-18T00:21:40.733Z,11.70
2019-05-18T00:22:13.857Z,11.60
2019-05-18T00:22:46.892Z,11.60
2019-05-18T00:23:19.974Z,11.60
2019-05-18T00:23:52.603Z,11.60
2019-05-18T00:24:25.252Z,11.60
2019-05-18T00:24:58.687Z,11.60
2019-05-18T00:25:31.610Z,11.60
2019-05-18T00:26:04.259Z,11.60
2019-05-18T00:26:36.882Z,11.60
2019-05-18T00:27:09.556Z,11.60
2019-05-18T00:27:42.211Z,11.60
2019-05-18T00:28:14.857Z,11.60
2019-05-18T00:28:47.861Z,11.60
2019-05-18T00:29:20.855Z,11.60
2019-05-18T00:29:53.486Z,11.60
2019-05-18T00:30:26.253Z,11.60
2019-05-18T00:30:58.879Z,11.60
2019-05-18T00:31:31.526Z,11.50
2019-05-18T00:32:04.395Z,11.50
2019-05-18T00:32:37.132Z,11.50
2019-05-18T00:33:10.212Z,11.50
2019-05-18T00:33:42.839Z,11.40
2019-05-18T00:34:15.474Z,11.50
2019-05-18T00:34:48.511Z,11.50
2019-05-18T00:35:21.165Z,11.40
2019-05-18T00:35:53.806Z,11.40
2019-05-18T00:36:26.507Z,11.40
2019-05-18T00:36:59.122Z,11.40
2019-05-18T00:37:32.090Z,11.40
2019-05-18T00:38:04.796Z,11.40
2019-05-18T00:38:38.723Z,11.40
2019-05-18T00:39:11.330Z,11.40
2019-05-18T00:39:44.352Z,11.40
2019-05-18T00:40:17.399Z,11.40
2019-05-18T00:40:50.522Z,11.40
2019-05-18T00:41:23.169Z,11.40
2019-05-18T00:41:56.178Z,11.30
2019-05-18T00:42:28.842Z,11.30
2019-05-18T00:43:01.459Z,11.30
2019-05-18T00:43:34.130Z,11.30
2019-05-18T00:44:06.767Z,11.30
2019-05-18T00:44:39.390Z,11.30
2019-05-18T00:45:12.495Z,11.30
2019-05-18T00:45:45.194Z,11.30
2019-05-18T00:46:17.782Z,11.30
2019-05-18T00:46:50.420Z,11.30
2019-05-18T00:47:23.816Z,11.30
2019-05-18T00:47:56.468Z,11.30
2019-05-18T00:48:29.489Z,11.20
2019-05-18T00:49:02.230Z,11.20
2019-05-18T00:49:34.862Z,11.20
2019-05-18T00:50:08.096Z,11.20
2019-05-18T00:50:40.731Z,11.20
2019-05-18T00:51:13.376Z,11.20
2019-05-18T00:51:46.334Z,11.20
2019-05-18T00:52:18.964Z,11.20
2019-05-18T00:52:51.599Z,11.20
2019-05-18T00:53:24.576Z,11.20
2019-05-18T00:53:57.890Z,11.20
2019-05-18T00:54:30.566Z,11.20
2019-05-18T00:55:03.698Z,11.30
2019-05-18T00:55:36.670Z,11.30
2019-05-18T00:56:09.299Z,11.30
2019-05-18T00:56:41.950Z,11.30
2019-05-18T00:57:14.624Z,11.30
2019-05-18T00:57:47.263Z,11.30
2019-05-18T00:58:19.890Z,11.30
2019-05-18T00:58:52.681Z,11.30
2019-05-18T00:59:25.489Z,11.20
2019-05-18T00:59:58.506Z,11.20
2019-05-18T01:00:31.478Z,11.20
2019-05-18T01:01:04.304Z,11.20
2019-05-18T01:01:36.928Z,11.20
2019-05-18T01:02:09.884Z,11.20
2019-05-18T01:02:42.863Z,11.20
2019-05-18T01:03:15.862Z,11.20
2019-05-18T01:03:48.503Z,11.20
2019-05-18T01:04:21.155Z,11.20
2019-05-18T01:04:53.798Z,11.20
2019-05-18T01:05:26.859Z,11.20
2019-05-18T01:05:59.839Z,11.20
2019-05-18T01:06:32.492Z,11.20
2019-05-18T01:07:05.108Z,11.20
2019-05-18T01:07:37.777Z,11.10
2019-05-18T01:08:10.751Z,11.10
2019-05-18T01:08:44.280Z,11.10
2019-05-18T01:09:17.216Z,11.10
2019-05-18T01:09:50.083Z,11.10
2019-05-18T01:10:23.450Z,11.10
2019-05-18T01:10:56.371Z,11.10
2019-05-18T01:11:29.265Z,11.00
2019-05-18T01:12:02.171Z,11.10
2019-05-18T01:12:35.052Z,11.00
2019-05-18T01:13:07.963Z,11.00
2019-05-18T01:13:40.869Z,11.00
2019-05-18T01:14:13.783Z,11.00
2019-05-18T01:14:47.252Z,10.90
2019-05-18T01:15:21.294Z,10.90
2019-05-18T01:15:54.884Z,10.90
2019-05-18T01:16:29.490Z,10.90
2019-05-18T01:17:02.779Z,10.90
2019-05-18T01:17:35.666Z,10.90
2019-05-18T01:18:08.746Z,10.90
2019-05-18T01:18:41.671Z,10.90
2019-05-18T01:19:14.568Z,10.80
2019-05-18T01:19:47.813Z,10.80
2019-05-18T01:20:21.330Z,10.80
2019-05-18T01:20:54.572Z,10.80
2019-05-18T01:21:27.447Z,10.80
2019-05-18T01:22:00.388Z,10.80
2019-05-18T01:22:33.375Z,10.80
2019-05-18T01:23:06.272Z,10.80
2019-05-18T01:23:39.182Z,10.80
2019-05-18T01:24:12.052Z,10.80
2019-05-18T01:24:45.382Z,10.70
2019-05-18T01:25:18.501Z,10.70
2019-05-18T01:25:51.369Z,10.70
2019-05-18T01:26:24.240Z,10.70
2019-05-18T01:26:57.144Z,10.70
2019-05-18T01:27:30.385Z,10.70
2019-05-18T01:28:04.044Z,10.70
2019-05-18T01:28:37.013Z,10.70
2019-05-18T01:29:09.994Z,10.70
2019-05-18T01:29:42.859Z,10.60
2019-05-18T01:30:16.194Z,10.60
2019-05-18T01:30:49.184Z,10.60
2019-05-18T01:31:22.089Z,10.60
2019-05-18T01:31:55.014Z,10.60
2019-05-18T01:32:28.065Z,10.60
2019-05-18T01:33:01.483Z,10.60
2019-05-18T01:33:34.364Z,10.60
2019-05-18T01:34:07.594Z,10.60
2019-05-18T01:34:40.510Z,10.60
2019-05-18T01:35:13.496Z,10.70
2019-05-18T01:35:47.129Z,10.60
2019-05-18T01:36:20.534Z,10.70
2019-05-18T01:36:53.545Z,10.70
2019-05-18T01:37:26.968Z,10.70
2019-05-18T01:37:59.877Z,10.70
2019-05-18T01:38:32.803Z,10.70
2019-05-18T01:39:06.688Z,10.70
2019-05-18T01:39:40.130Z,10.80
2019-05-18T01:40:14.143Z,10.80
2019-05-18T01:40:47.358Z,10.80
2019-05-18T01:41:20.270Z,10.80
2019-05-18T01:41:53.153Z,10.80
2019-05-18T01:42:26.040Z,10.80
2019-05-18T01:42:58.921Z,10.80
2019-05-18T01:43:31.767Z,10.80
2019-05-18T01:44:05.003Z,10.80
2019-05-18T01:44:38.218Z,10.80
2019-05-18T01:45:16.896Z,10.80
2019-05-18T01:45:46.715Z,10.70
2019-05-18T01:46:19.604Z,10.80
2019-05-18T01:46:52.816Z,10.70
2019-05-18T01:47:25.675Z,10.70
2019-05-18T01:48:12.658Z,10.70
2019-05-18T01:48:33.238Z,10.70
2019-05-18T01:49:06.101Z,10.70
2019-05-18T01:49:39.664Z,10.70
2019-05-18T01:50:13.186Z,10.70
2019-05-18T01:50:46.086Z,10.70
2019-05-18T01:51:18.943Z,10.70
2019-05-18T01:51:52.032Z,10.70
2019-05-18T01:52:25.284Z,10.70
2019-05-18T01:52:58.516Z,10.60
2019-05-18T01:53:31.396Z,10.60
2019-05-18T01:54:04.360Z,10.60
2019-05-18T01:54:37.237Z,10.60
2019-05-18T01:55:10.458Z,10.60
2019-05-18T01:55:43.359Z,10.60
2019-05-18T01:56:16.966Z,10.60
2019-05-18T01:56:49.835Z,10.60
2019-05-18T01:57:23.045Z,10.60
2019-05-18T01:57:56.268Z,10.60
2019-05-18T01:58:29.144Z,10.60
2019-05-18T01:59:01.983Z,10.60
2019-05-18T01:59:34.860Z,10.60
2019-05-18T02:00:08.874Z,10.60
2019-05-18T02:00:41.749Z,10.60
2019-05-18T02:01:14.585Z,10.60
2019-05-18T02:01:47.439Z,10.60
2019-05-18T02:02:20.753Z,10.60
2019-05-18T02:02:53.679Z,10.60
2019-05-18T02:03:26.343Z,10.60
2019-05-18T02:03:59.248Z,10.70
2019-05-18T02:04:31.899Z,10.70
2019-05-18T02:05:05.051Z,10.70
2019-05-18T02:05:38.021Z,10.70
2019-05-18T02:06:11.145Z,10.70
2019-05-18T02:06:44.113Z,10.70
2019-05-18T02:07:16.897Z,10.70
2019-05-18T02:07:49.539Z,10.70
2019-05-18T02:08:22.939Z,10.70
2019-05-18T02:08:55.574Z,10.70
2019-05-18T02:09:28.217Z,10.70
2019-05-18T02:10:00.965Z,10.70
2019-05-18T02:10:33.908Z,10.70
2019-05-18T02:11:07.866Z,10.70
2019-05-18T02:11:40.852Z,10.70
2019-05-18T02:12:13.887Z,10.70
2019-05-18T02:12:46.515Z,10.70
2019-05-18T02:13:19.532Z,10.70
2019-05-18T02:13:52.178Z,10.60
2019-05-18T02:14:24.822Z,10.70
2019-05-18T02:14:57.469Z,10.60
2019-05-18T02:15:30.139Z,10.60
2019-05-18T02:16:02.782Z,10.60
2019-05-18T02:16:35.425Z,10.60
2019-05-18T02:17:08.114Z,10.60
2019-05-18T02:17:40.781Z,10.60
2019-05-18T02:18:26.905Z,10.50
2019-05-18T02:18:48.282Z,10.50
2019-05-18T02:19:20.986Z,10.50
2019-05-18T02:19:53.622Z,10.40
2019-05-18T02:20:26.575Z,10.50
2019-05-18T02:20:59.207Z,10.50
2019-05-18T02:21:32.250Z,10.50
2019-05-18T02:22:05.042Z,10.50
2019-05-18T02:22:38.391Z,10.50
2019-05-18T02:23:11.036Z,10.50
2019-05-18T02:23:43.686Z,10.50
2019-05-18T02:24:16.667Z,10.40
2019-05-18T02:24:49.302Z,10.40
2019-05-18T02:25:22.329Z,10.40
2019-05-18T02:25:54.976Z,10.40
2019-05-18T02:26:27.615Z,10.40
2019-05-18T02:27:00.268Z,10.40
2019-05-18T02:27:32.904Z,10.50
2019-05-18T02:28:06.781Z,10.50
2019-05-18T02:28:39.732Z,10.40
2019-05-18T02:29:12.374Z,10.40
2019-05-18T02:29:45.019Z,10.40
2019-05-18T02:30:18.081Z,10.40
2019-05-18T02:30:50.725Z,10.40
2019-05-18T02:31:24.110Z,10.40
2019-05-18T02:31:56.751Z,10.40
2019-05-18T02:32:29.406Z,10.30
2019-05-18T02:33:02.047Z,10.40
2019-05-18T02:33:34.722Z,10.30
2019-05-18T02:34:07.371Z,10.40
2019-05-18T02:34:40.005Z,10.30
2019-05-18T02:35:12.797Z,10.30
2019-05-18T02:35:45.442Z,10.40
2019-05-18T02:36:18.110Z,10.30
2019-05-18T02:36:51.095Z,10.30
2019-05-18T02:37:23.729Z,10.30
2019-05-18T02:38:13.551Z,10.30
2019-05-18T02:38:46.253Z,10.30
2019-05-18T02:39:18.978Z,10.30
2019-05-18T02:39:54.283Z,10.30
2019-05-18T02:40:27.256Z,10.30
2019-05-18T02:40:59.901Z,10.20
2019-05-18T02:41:32.886Z,10.20
2019-05-18T02:42:05.544Z,10.30
2019-05-18T02:42:38.540Z,10.20
2019-05-18T02:43:11.182Z,10.20
2019-05-18T02:43:44.168Z,10.20
2019-05-18T02:44:17.249Z,10.20
2019-05-18T02:44:49.882Z,10.20
2019-05-18T02:45:22.539Z,10.20
2019-05-18T02:45:55.186Z,10.20
2019-05-18T02:46:27.838Z,10.20
2019-05-18T02:47:01.182Z,10.10
2019-05-18T02:47:33.832Z,10.10
2019-05-18T02:48:06.592Z,10.10
2019-05-18T02:48:49.754Z,10.00
2019-05-18T02:49:13.647Z,10.10
2019-05-18T02:49:46.314Z,10.00
2019-05-18T02:50:19.647Z,10.00
2019-05-18T02:50:52.279Z,10.00
2019-05-18T02:51:24.920Z,9.90
2019-05-18T02:51:57.581Z,9.90
2019-05-18T02:52:30.211Z,9.80
2019-05-18T02:53:02.981Z,9.80
2019-05-18T02:53:36.029Z,9.70
2019-05-18T02:54:08.640Z,9.60
2019-05-18T02:54:41.275Z,9.60
2019-05-18T02:55:13.934Z,9.60
2019-05-18T02:55:46.594Z,9.60
2019-05-18T02:56:19.684Z,9.60
2019-05-18T02:56:52.647Z,9.60
2019-05-18T02:57:25.630Z,9.50
2019-05-18T02:57:58.600Z,9.50
2019-05-18T02:58:31.250Z,9.50
2019-05-18T02:59:04.544Z,9.50
2019-05-18T02:59:37.170Z,9.50
2019-05-18T03:00:10.223Z,9.40
2019-05-18T03:00:42.909Z,9.40
2019-05-18T03:01:15.855Z,9.40
2019-05-18T03:01:48.847Z,9.40
2019-05-18T03:02:21.479Z,9.40
2019-05-18T03:02:54.128Z,9.40
2019-05-18T03:03:26.768Z,9.40
2019-05-18T03:04:00.075Z,9.40
2019-05-18T03:04:32.700Z,9.40
2019-05-18T03:05:05.531Z,9.30
2019-05-18T03:05:38.171Z,9.30
2019-05-18T03:06:10.838Z,9.30
2019-05-18T03:06:43.742Z,9.20
2019-05-18T03:07:16.376Z,9.20
2019-05-18T03:07:49.424Z,9.20
2019-05-18T03:08:22.057Z,9.20
2019-05-18T03:08:54.702Z,9.20
2019-05-18T03:09:27.337Z,9.20
2019-05-18T03:09:59.983Z,9.20
2019-05-18T03:10:32.621Z,9.10
2019-05-18T03:11:05.257Z,9.10
2019-05-18T03:11:37.938Z,9.10
2019-05-18T03:12:10.964Z,9.10
2019-05-18T03:12:43.597Z,9.10
2019-05-18T03:13:16.608Z,9.10
2019-05-18T03:13:49.376Z,9.10
2019-05-18T03:14:22.040Z,9.10
2019-05-18T03:14:54.697Z,9.00
2019-05-18T03:15:27.434Z,9.10
2019-05-18T03:16:00.071Z,9.10
2019-05-18T03:16:33.512Z,9.10
2019-05-18T03:17:06.682Z,9.10
2019-05-18T03:17:39.319Z,9.10
2019-05-18T03:18:12.167Z,9.10
2019-05-18T03:18:44.783Z,9.10
2019-05-18T03:19:17.800Z,9.10
2019-05-18T03:19:50.452Z,9.10
2019-05-18T03:20:23.429Z,9.10
2019-05-18T03:20:56.068Z,9.10
2019-05-18T03:21:29.217Z,9.10
2019-05-18T03:22:01.868Z,9.00
2019-05-18T03:22:34.659Z,9.00
2019-05-18T03:23:07.284Z,9.10
2019-05-18T03:23:40.314Z,9.00
2019-05-18T03:24:12.964Z,9.00
2019-05-18T03:24:45.945Z,9.00
2019-05-18T03:25:18.611Z,9.00
2019-05-18T03:25:51.252Z,9.10
2019-05-18T03:26:24.227Z,9.10
2019-05-18T03:26:56.861Z,9.00
2019-05-18T03:27:29.491Z,9.00
2019-05-18T03:28:02.183Z,9.10
2019-05-18T03:28:35.458Z,9.10
2019-05-18T03:29:08.143Z,9.10
2019-05-18T03:29:40.758Z,9.10
2019-05-18T03:30:14.164Z,9.10
2019-05-18T03:30:47.151Z,9.10
2019-05-18T03:31:19.799Z,9.10
2019-05-18T03:31:52.452Z,9.10
2019-05-18T03:32:25.096Z,9.10
2019-05-18T03:32:57.732Z,9.10
2019-05-18T03:33:30.856Z,9.10
2019-05-18T03:34:03.687Z,9.10
2019-05-18T03:34:36.300Z,9.10
2019-05-18T03:35:09.053Z,9.10
2019-05-18T03:35:41.693Z,9.10
2019-05-18T03:36:14.344Z,9.10
2019-05-18T03:36:47.695Z,9.10
2019-05-18T03:37:20.646Z,9.10
2019-05-18T03:37:53.664Z,9.10
2019-05-18T03:38:26.961Z,9.10
2019-05-18T03:38:59.635Z,9.20
2019-05-18T03:39:32.938Z,9.10
2019-05-18T03:40:06.577Z,9.10
2019-05-18T03:40:39.216Z,9.10
2019-05-18T03:41:12.151Z,9.20
2019-05-18T03:41:45.124Z,9.20
2019-05-18T03:42:18.099Z,9.20
2019-05-18T03:42:50.725Z,9.20
2019-05-18T03:43:23.749Z,9.20
2019-05-18T03:43:56.505Z,9.20
2019-05-18T03:44:29.164Z,9.30
2019-05-18T03:45:01.858Z,9.30
2019-05-18T03:45:34.799Z,9.30
2019-05-18T03:46:08.448Z,9.40
2019-05-18T03:46:41.830Z,9.40
2019-05-18T03:47:14.817Z,9.30
2019-05-18T03:47:47.463Z,9.40
2019-05-18T03:48:20.448Z,9.40
2019-05-18T03:48:53.083Z,9.40
2019-05-18T03:49:27.639Z,9.40
2019-05-18T03:50:00.210Z,9.50
2019-05-18T03:50:32.867Z,9.50
2019-05-18T03:51:06.123Z,9.50
2019-05-18T03:51:38.757Z,9.50
2019-05-18T03:52:11.396Z,9.50
2019-05-18T03:52:44.023Z,9.60
2019-05-18T03:53:18.289Z,9.50
2019-05-18T03:53:52.015Z,9.60
2019-05-18T03:54:24.668Z,9.60
2019-05-18T03:54:57.659Z,9.60
2019-05-18T03:55:30.555Z,9.60
2019-05-18T03:56:03.197Z,9.60
2019-05-18T03:56:35.834Z,9.60
2019-05-18T03:57:08.864Z,9.60
2019-05-18T03:57:42.334Z,9.50
2019-05-18T03:58:15.252Z,9.50
2019-05-18T03:58:48.261Z,9.60
2019-05-18T03:59:20.908Z,9.60
2019-05-18T03:59:53.549Z,9.60
2019-05-18T04:00:26.226Z,9.60
2019-05-18T04:00:59.609Z,9.60
2019-05-18T04:01:32.246Z,9.60
2019-05-18T04:02:04.886Z,9.60
2019-05-18T04:02:37.593Z,9.60
2019-05-18T04:03:10.191Z,9.60
2019-05-18T04:03:43.143Z,9.70
2019-05-18T04:04:18.439Z,9.70
2019-05-18T04:04:50.575Z,9.60
2019-05-18T04:05:23.576Z,9.60
2019-05-18T04:05:56.507Z,9.60
2019-05-18T04:06:29.191Z,9.60
2019-05-18T04:07:01.832Z,9.60
2019-05-18T04:07:34.472Z,9.60
2019-05-18T04:08:07.769Z,9.60
2019-05-18T04:08:40.721Z,9.70
2019-05-18T04:09:13.831Z,9.70
2019-05-18T04:09:46.855Z,9.60
2019-05-18T04:10:26.462Z,9.70
2019-05-18T04:10:59.090Z,9.60
2019-05-18T04:11:32.168Z,9.60
2019-05-18T04:12:05.222Z,9.60
2019-05-18T04:12:37.871Z,9.70
2019-05-18T04:13:10.519Z,9.70
2019-05-18T04:13:43.555Z,9.60
2019-05-18T04:14:16.205Z,9.70
2019-05-18T04:14:48.848Z,9.70
2019-05-18T04:15:21.490Z,9.70
2019-05-18T04:15:54.141Z,9.70
2019-05-18T04:16:26.765Z,9.80
2019-05-18T04:16:59.741Z,9.80
2019-05-18T04:17:32.389Z,9.80
2019-05-18T04:18:05.287Z,9.80
2019-05-18T04:18:37.952Z,9.90
2019-05-18T04:19:11.441Z,9.90
2019-05-18T04:19:46.762Z,9.90
2019-05-18T04:20:18.691Z,9.90
2019-05-18T04:20:51.362Z,9.90
2019-05-18T04:21:26.818Z,9.90
2019-05-18T04:21:59.457Z,9.90
2019-05-18T04:22:32.761Z,9.90
2019-05-18T04:23:05.482Z,9.90
2019-05-18T04:23:38.122Z,10.00
2019-05-18T04:24:10.791Z,10.00
2019-05-18T04:24:43.432Z,10.00
2019-05-18T04:25:16.479Z,10.00
2019-05-18T04:25:49.123Z,10.00
2019-05-18T04:26:21.774Z,10.00
2019-05-18T04:26:54.424Z,10.00
2019-05-18T04:27:27.081Z,10.00
2019-05-18T04:27:59.799Z,10.00
2019-05-18T04:28:32.489Z,10.00
2019-05-18T04:29:05.170Z,10.10
2019-05-18T04:29:37.818Z,10.00
2019-05-18T04:30:11.161Z,10.00
2019-05-18T04:30:44.120Z,10.00
2019-05-18T04:31:17.142Z,10.10
2019-05-18T04:31:49.784Z,10.10
2019-05-18T04:32:22.428Z,10.00
2019-05-18T04:32:55.443Z,10.10
2019-05-18T04:33:28.517Z,10.10
2019-05-18T04:34:01.240Z,10.10
2019-05-18T04:34:33.879Z,10.10
2019-05-18T04:35:06.923Z,10.10
2019-05-18T04:35:39.848Z,10.20
2019-05-18T04:36:12.937Z,10.20
2019-05-18T04:36:45.582Z,10.20
2019-05-18T04:37:18.623Z,10.20
2019-05-18T04:37:51.567Z,10.30
2019-05-18T04:38:24.220Z,10.30
2019-05-18T04:38:56.908Z,10.30
2019-05-18T04:39:29.830Z,10.30
2019-05-18T04:40:02.505Z,10.30
2019-05-18T04:40:35.451Z,10.30
2019-05-18T04:41:08.415Z,10.40
2019-05-18T04:41:41.054Z,10.40
2019-05-18T04:42:14.011Z,10.40
2019-05-18T04:42:46.713Z,10.40
2019-05-18T04:43:19.346Z,10.40
2019-05-18T04:43:52.274Z,10.50
2019-05-18T04:44:24.956Z,10.50
2019-05-18T04:44:57.581Z,10.50
2019-05-18T04:45:30.388Z,10.60
2019-05-18T04:46:03.033Z,10.60
2019-05-18T04:46:36.055Z,10.60
2019-05-18T04:47:08.709Z,10.60
2019-05-18T04:47:41.676Z,10.60
2019-05-18T04:48:14.323Z,10.60
2019-05-18T04:48:47.291Z,10.60
2019-05-18T04:49:20.217Z,10.70
2019-05-18T04:50:04.513Z,10.70
2019-05-18T04:50:27.663Z,10.70
2019-05-18T04:51:00.311Z,10.70
2019-05-18T04:51:33.013Z,10.80
2019-05-18T04:52:06.067Z,10.80
2019-05-18T04:52:38.733Z,10.80
2019-05-18T04:53:11.383Z,10.90
2019-05-18T04:53:44.007Z,10.90
2019-05-18T04:54:16.668Z,10.90
2019-05-18T04:54:49.663Z,10.90
2019-05-18T04:55:22.342Z,10.90
2019-05-18T04:55:55.000Z,10.90
2019-05-18T04:56:27.640Z,10.90
2019-05-18T04:57:00.263Z,11.00
2019-05-18T04:57:32.899Z,11.00
2019-05-18T04:58:05.548Z,11.00
2019-05-18T04:58:38.526Z,11.10
2019-05-18T04:59:11.978Z,11.10
2019-05-18T04:59:44.618Z,11.10
2019-05-18T05:00:17.413Z,11.20
2019-05-18T05:00:50.242Z,11.20
2019-05-18T05:01:23.283Z,11.20
2019-05-18T05:01:55.942Z,11.20
2019-05-18T05:02:29.008Z,11.20
2019-05-18T05:03:01.657Z,11.20
2019-05-18T05:03:34.282Z,11.20
2019-05-18T05:04:06.956Z,11.30
2019-05-18T05:04:39.899Z,11.30
2019-05-18T05:05:12.878Z,11.20
2019-05-18T05:05:45.539Z,11.20
2019-05-18T05:06:18.224Z,11.30
2019-05-18T05:06:50.847Z,11.30
2019-05-18T05:07:23.507Z,11.30
2019-05-18T05:07:56.741Z,11.30
2019-05-18T05:08:29.674Z,11.40
2019-05-18T05:09:02.803Z,11.40
2019-05-18T05:09:35.441Z,11.50
2019-05-18T05:10:08.264Z,11.50
2019-05-18T05:10:41.199Z,11.60
2019-05-18T05:11:14.127Z,11.60
2019-05-18T05:11:46.822Z,11.60
2019-05-18T05:12:19.473Z,11.70
2019-05-18T05:12:52.111Z,11.70
2019-05-18T05:13:24.733Z,11.80
2019-05-18T05:13:57.407Z,11.80
2019-05-18T05:14:30.354Z,11.80
2019-05-18T05:15:03.355Z,11.90
2019-05-18T05:15:35.992Z,11.90
2019-05-18T05:16:08.637Z,11.90
2019-05-18T05:16:41.287Z,12.00
2019-05-18T05:17:14.254Z,12.10
2019-05-18T05:17:46.918Z,12.10
2019-05-18T05:18:19.974Z,12.10
2019-05-18T05:18:52.700Z,12.20
2019-05-18T05:19:25.696Z,12.20
2019-05-18T05:19:58.983Z,12.20
2019-05-18T05:20:31.623Z,12.20
2019-05-18T05:21:04.598Z,12.20
2019-05-18T05:21:37.876Z,12.30
2019-05-18T05:22:10.546Z,12.30
2019-05-18T05:22:43.226Z,12.30
2019-05-18T05:23:15.870Z,12.30
2019-05-18T05:23:48.543Z,12.30
2019-05-18T05:24:21.531Z,12.30
2019-05-18T05:24:54.497Z,12.40
2019-05-18T05:25:28.556Z,12.40
2019-05-18T05:26:04.419Z,12.50
2019-05-18T05:26:39.599Z,12.60
2019-05-18T05:27:13.495Z,12.70
2019-05-18T05:27:46.264Z,12.70
2019-05-18T05:28:19.401Z,12.80
2019-05-18T05:28:52.055Z,12.80
2019-05-18T05:29:25.033Z,12.90
2019-05-18T05:29:58.022Z,12.90
2019-05-18T05:30:30.681Z,13.00
2019-05-18T05:31:03.632Z,13.00
2019-05-18T05:31:36.284Z,13.00
2019-05-18T05:32:08.923Z,13.00
2019-05-18T05:32:41.935Z,13.00
2019-05-18T05:33:14.993Z,13.10
2019-05-18T05:33:47.676Z,13.10
2019-05-18T05:34:20.400Z,13.10
2019-05-18T05:34:53.420Z,13.30
2019-05-18T05:35:26.391Z,13.30
2019-05-18T05:35:59.036Z,13.20
2019-05-18T05:36:31.878Z,13.30
2019-05-18T05:37:04.535Z,13.20
2019-05-18T05:37:37.536Z,13.20
2019-05-18T05:38:10.500Z,13.10
2019-05-18T05:38:43.171Z,13.10
2019-05-18T05:39:16.200Z,13.00
2019-05-18T05:39:48.944Z,13.00
2019-05-18T05:40:21.599Z,13.10
2019-05-18T05:40:54.273Z,13.10
2019-05-18T05:41:26.951Z,13.20
2019-05-18T05:41:59.607Z,13.30
2019-05-18T05:42:32.267Z,13.40
2019-05-18T05:43:04.927Z,13.50
2019-05-18T05:43:37.587Z,13.50
2019-05-18T05:44:10.242Z,13.60
2019-05-18T05:44:42.951Z,13.60
2019-05-18T05:45:15.690Z,13.60
2019-05-18T05:45:48.680Z,13.60
2019-05-18T05:46:21.331Z,13.50
2019-05-18T05:46:55.115Z,13.50
2019-05-18T05:47:27.810Z,13.40
2019-05-18T05:48:01.092Z,13.40
2019-05-18T05:48:33.734Z,13.40
2019-05-18T05:49:06.739Z,13.50
2019-05-18T05:49:39.670Z,13.50
2019-05-18T05:50:12.464Z,13.70
2019-05-18T05:50:45.442Z,13.70
2019-05-18T05:51:18.459Z,13.90
2019-05-18T05:51:51.584Z,14.00
2019-05-18T05:52:24.201Z,14.10
2019-05-18T05:52:56.853Z,14.30
2019-05-18T05:53:29.796Z,14.40
2019-05-18T05:54:02.758Z,14.50
2019-05-18T05:54:35.408Z,14.70
2019-05-18T05:55:09.554Z,14.80
2019-05-18T05:55:42.708Z,14.90
2019-05-18T05:56:15.359Z,15.00
2019-05-18T05:56:47.983Z,15.10
2019-05-18T05:57:20.611Z,15.20
2019-05-18T05:57:53.581Z,15.30
2019-05-18T05:58:26.332Z,15.40
2019-05-18T05:58:58.979Z,15.50
2019-05-18T05:59:31.951Z,15.60
2019-05-18T06:00:06.240Z,15.80
2019-05-18T06:00:38.871Z,15.90
2019-05-18T06:01:11.612Z,15.90
2019-05-18T06:01:44.631Z,16.00
2019-05-18T06:02:17.269Z,16.00
2019-05-18T06:02:49.917Z,16.10
2019-05-18T06:03:22.563Z,16.10
2019-05-18T06:03:55.198Z,16.00
2019-05-18T06:04:27.861Z,16.00
2019-05-18T06:05:00.487Z,16.00
2019-05-18T06:05:33.102Z,16.00
2019-05-18T06:06:05.748Z,16.00
2019-05-18T06:06:38.783Z,16.10
2019-05-18T06:07:11.436Z,16.10
2019-05-18T06:07:44.425Z,16.10
2019-05-18T06:08:17.064Z,16.10
2019-05-18T06:08:49.702Z,16.20
2019-05-18T06:09:22.725Z,16.20
2019-05-18T06:09:55.367Z,16.30
2019-05-18T06:10:28.367Z,16.20
2019-05-18T06:11:01.009Z,16.20
2019-05-18T06:11:33.659Z,16.30
2019-05-18T06:12:06.327Z,16.30
2019-05-18T06:12:38.962Z,16.30
2019-05-18T06:13:11.622Z,16.30
2019-05-18T06:13:44.261Z,16.40
2019-05-18T06:14:16.993Z,16.50
2019-05-18T06:14:49.640Z,16.60
2019-05-18T06:15:22.671Z,16.60
2019-05-18T06:15:55.652Z,16.70
2019-05-18T06:16:28.621Z,16.70
2019-05-18T06:17:01.277Z,16.80
2019-05-18T06:17:33.971Z,16.90
2019-05-18T06:18:06.606Z,17.00
2019-05-18T06:18:39.691Z,17.00
2019-05-18T06:19:12.667Z,17.10
2019-05-18T06:19:45.795Z,17.20
2019-05-18T06:20:18.799Z,17.20
2019-05-18T06:20:52.185Z,17.20
2019-05-18T06:21:25.304Z,17.30
2019-05-18T06:21:58.661Z,17.30
2019-05-18T06:22:31.884Z,17.40
2019-05-18T06:23:04.955Z,17.50
2019-05-18T06:23:37.610Z,17.50
2019-05-18T06:24:10.278Z,17.60
2019-05-18T06:24:43.422Z,17.70
2019-05-18T06:25:16.123Z,17.70
2019-05-18T06:25:49.129Z,17.70
2019-05-18T06:26:24.200Z,17.70
2019-05-18T06:26:56.535Z,17.60
2019-05-18T06:27:29.188Z,17.60
2019-05-18T06:28:01.889Z,17.60
2019-05-18T06:28:34.942Z,17.60
2019-05-18T06:29:07.615Z,17.60
2019-05-18T06:29:40.288Z,17.50
2019-05-18T06:30:13.489Z,17.60
2019-05-18T06:30:46.127Z,17.60
2019-05-18T06:31:19.157Z,17.50
2019-05-18T06:31:52.177Z,17.50
2019-05-18T06:32:24.823Z,17.40
2019-05-18T06:32:58.525Z,17.40
2019-05-18T06:33:31.523Z,17.10
2019-05-18T06:34:04.547Z,17.20
2019-05-18T06:34:37.491Z,17.20
2019-05-18T06:35:11.239Z,17.20
2019-05-18T06:35:44.211Z,17.30
2019-05-18T06:36:16.848Z,17.10
2019-05-18T06:36:49.856Z,16.90
2019-05-18T06:37:22.486Z,16.90
2019-05-18T06:37:55.527Z,16.90
2019-05-18T06:38:28.511Z,17.10
2019-05-18T06:39:01.149Z,17.10
2019-05-18T06:39:33.814Z,17.30
2019-05-18T06:40:07.094Z,17.40
2019-05-18T06:40:39.731Z,17.40
2019-05-18T06:41:12.742Z,17.50
2019-05-18T06:41:45.686Z,17.50
2019-05-18T06:42:18.803Z,17.60
2019-05-18T06:42:51.489Z,17.60
2019-05-18T06:43:24.102Z,17.70
2019-05-18T06:43:58.495Z,17.70
2019-05-18T06:44:31.173Z,17.80
2019-05-18T06:45:05.066Z,17.90
2019-05-18T06:45:37.699Z,18.00
2019-05-18T06:46:10.598Z,17.90
2019-05-18T06:46:43.241Z,17.80
2019-05-18T06:47:15.870Z,17.80
2019-05-18T06:47:48.890Z,17.90
2019-05-18T06:48:21.827Z,18.00
2019-05-18T06:48:54.448Z,18.00
2019-05-18T06:49:27.097Z,17.80
2019-05-18T06:50:00.120Z,17.80
2019-05-18T06:50:32.776Z,17.80
2019-05-18T06:51:07.513Z,17.80
2019-05-18T06:51:40.219Z,17.80
2019-05-18T06:52:12.949Z,17.90
2019-05-18T06:52:45.977Z,17.80
2019-05-18T06:53:19.848Z,17.90
2019-05-18T06:53:53.459Z,17.90
2019-05-18T06:54:26.409Z,18.00
2019-05-18T06:54:59.059Z,18.00
2019-05-18T06:55:32.377Z,17.90
2019-05-18T06:56:05.746Z,17.80
2019-05-18T06:56:38.831Z,17.80
2019-05-18T06:57:12.617Z,17.80
2019-05-18T06:57:46.106Z,17.90
2019-05-18T06:58:20.078Z,17.90
2019-05-18T06:58:53.758Z,17.80
2019-05-18T06:59:27.183Z,17.90
2019-05-18T07:00:00.716Z,18.00
2019-05-18T07:00:33.351Z,18.00
2019-05-18T07:01:06.037Z,18.00
2019-05-18T07:01:39.006Z,18.10
2019-05-18T07:02:11.948Z,18.10
2019-05-18T07:02:44.883Z,18.20
2019-05-18T07:03:17.591Z,18.30
2019-05-18T07:03:50.489Z,18.30
2019-05-18T07:04:23.475Z,18.30
2019-05-18T07:04:56.093Z,18.40
2019-05-18T07:05:28.736Z,18.40
2019-05-18T07:06:01.672Z,18.40
2019-05-18T07:06:34.905Z,18.40
2019-05-18T07:07:07.641Z,18.20
2019-05-18T07:07:40.283Z,18.10